sensor_id;sensor_type;location;lat;lon;timestamp;temperature;humidity
4964;DHT22;2497;47.410;9.740;2023-12-20T00:02:07;3.90;99.90
4964;DHT22;2497;47.410;9.740;2023-12-20T00:04:38;3.80;99.90
4964;DHT22;2497;47.410;9.740;2023-12-20T00:07:20;3.70;99.90
4964;DHT22;2497;47.410;9.740;2023-12-20T00:15:23;3.80;99.90
4964;DHT22;2497;47.410;9.740;2023-12-20T00:17:57;3.60;99.90
4964;DHT22;2497;47.410;9.740;2023-12-20T00:20:25;3.50;99.90
4964;DHT22;2497;47.410;9.740;2023-12-20T00:22:54;3.40;99.90
4964;DHT22;2497;47.410;9.740;2023-12-20T00:25:22;3.40;99.90
4964;DHT22;2497;47.410;9.740;2023-12-20T00:27:55;3.30;99.90
4964;DHT22;2497;47.410;9.740;2023-12-20T00:30:32;3.30;99.90
4964;DHT22;2497;47.410;9.740;2023-12-20T00:36:13;3.30;99.90
4964;DHT22;2497;47.410;9.740;2023-12-20T00:38:41;3.30;99.90
4964;DHT22;2497;47.410;9.740;2023-12-20T00:41:25;3.30;99.90
4964;DHT22;2497;47.410;9.740;2023-12-20T00:44:30;3.30;99.90
4964;DHT22;2497;47.410;9.740;2023-12-20T00:47:06;3.30;99.90
4964;DHT22;2497;47.410;9.740;2023-12-20T00:49:34;3.20;99.90
4964;DHT22;2497;47.410;9.740;2023-12-20T00:52:11;3.20;99.90
4964;DHT22;2497;47.410;9.740;2023-12-20T00:54:38;3.20;99.90
4964;DHT22;2497;47.410;9.740;2023-12-20T00:57:11;3.10;99.90
4964;DHT22;2497;47.410;9.740;2023-12-20T00:59:42;3.10;99.90
4964;DHT22;2497;47.410;9.740;2023-12-20T01:02:14;3.20;99.90
4964;DHT22;2497;47.410;9.740;2023-12-20T01:12:46;3.10;99.90
4964;DHT22;2497;47.410;9.740;2023-12-20T01:15:20;3.10;99.90
4964;DHT22;2497;47.410;9.740;2023-12-20T01:17:55;3.10;99.90
4964;DHT22;2497;47.410;9.740;2023-12-20T01:20:31;3.10;99.90
4964;DHT22;2497;47.410;9.740;2023-12-20T01:23:17;3.10;99.90
4964;DHT22;2497;47.410;9.740;2023-12-20T01:25:46;3.00;99.90
4964;DHT22;2497;47.410;9.740;2023-12-20T01:28:21;3.00;99.90
4964;DHT22;2497;47.410;9.740;2023-12-20T01:33:57;3.10;99.90
4964;DHT22;2497;47.410;9.740;2023-12-20T01:36:26;3.20;99.90
4964;DHT22;2497;47.410;9.740;2023-12-20T01:39:03;3.30;99.90
4964;DHT22;2497;47.410;9.740;2023-12-20T01:41:35;3.40;99.90
4964;DHT22;2497;47.410;9.740;2023-12-20T01:47:16;3.70;99.90
4964;DHT22;2497;47.410;9.740;2023-12-20T01:49:50;4.00;99.90
4964;DHT22;2497;47.410;9.740;2023-12-20T01:52:24;4.20;99.90
4964;DHT22;2497;47.410;9.740;2023-12-20T01:55:20;4.40;99.90
4964;DHT22;2497;47.410;9.740;2023-12-20T01:57:49;4.60;99.90
4964;DHT22;2497;47.410;9.740;2023-12-20T02:00:28;4.80;99.90
4964;DHT22;2497;47.410;9.740;2023-12-20T02:03:01;4.80;99.90
4964;DHT22;2497;47.410;9.740;2023-12-20T02:05:30;4.80;99.90
4964;DHT22;2497;47.410;9.740;2023-12-20T02:08:04;4.80;99.90
4964;DHT22;2497;47.410;9.740;2023-12-20T02:10:37;4.60;99.90
4964;DHT22;2497;47.410;9.740;2023-12-20T02:13:04;4.50;99.90
4964;DHT22;2497;47.410;9.740;2023-12-20T02:15:31;4.60;99.90
4964;DHT22;2497;47.410;9.740;2023-12-20T02:18:00;4.60;99.90
4964;DHT22;2497;47.410;9.740;2023-12-20T02:20:28;4.40;99.90
4964;DHT22;2497;47.410;9.740;2023-12-20T02:22:56;4.20;99.90
4964;DHT22;2497;47.410;9.740;2023-12-20T02:25:24;4.10;99.90
4964;DHT22;2497;47.410;9.740;2023-12-20T02:27:51;4.00;99.90
4964;DHT22;2497;47.410;9.740;2023-12-20T02:30:19;3.90;99.90
4964;DHT22;2497;47.410;9.740;2023-12-20T02:32:51;3.80;99.90
4964;DHT22;2497;47.410;9.740;2023-12-20T02:35:25;3.80;99.90
4964;DHT22;2497;47.410;9.740;2023-12-20T02:37:53;3.80;99.90
4964;DHT22;2497;47.410;9.740;2023-12-20T02:40:24;3.80;99.90
4964;DHT22;2497;47.410;9.740;2023-12-20T02:42:51;3.80;99.90
4964;DHT22;2497;47.410;9.740;2023-12-20T02:45:19;3.70;99.90
4964;DHT22;2497;47.410;9.740;2023-12-20T02:47:46;3.70;99.90
4964;DHT22;2497;47.410;9.740;2023-12-20T02:50:13;3.60;99.90
4964;DHT22;2497;47.410;9.740;2023-12-20T02:52:42;3.60;99.90
4964;DHT22;2497;47.410;9.740;2023-12-20T02:55:10;3.60;99.90
4964;DHT22;2497;47.410;9.740;2023-12-20T02:57:41;3.60;99.90
4964;DHT22;2497;47.410;9.740;2023-12-20T03:00:12;3.60;99.90
4964;DHT22;2497;47.410;9.740;2023-12-20T03:02:41;3.60;99.90
4964;DHT22;2497;47.410;9.740;2023-12-20T03:05:12;3.50;99.90
4964;DHT22;2497;47.410;9.740;2023-12-20T03:07:39;3.50;99.90
4964;DHT22;2497;47.410;9.740;2023-12-20T03:10:07;3.50;99.90
4964;DHT22;2497;47.410;9.740;2023-12-20T03:12:54;3.50;99.90
4964;DHT22;2497;47.410;9.740;2023-12-20T03:15:23;3.50;99.90
4964;DHT22;2497;47.410;9.740;2023-12-20T03:18:07;3.50;99.90
4964;DHT22;2497;47.410;9.740;2023-12-20T03:20:35;3.60;99.90
4964;DHT22;2497;47.410;9.740;2023-12-20T03:23:02;3.60;99.90
4964;DHT22;2497;47.410;9.740;2023-12-20T03:25:29;3.60;99.90
4964;DHT22;2497;47.410;9.740;2023-12-20T03:27:59;3.60;99.90
4964;DHT22;2497;47.410;9.740;2023-12-20T03:30:29;3.70;99.90
4964;DHT22;2497;47.410;9.740;2023-12-20T03:32:58;3.80;99.90
4964;DHT22;2497;47.410;9.740;2023-12-20T03:35:39;3.80;99.90
4964;DHT22;2497;47.410;9.740;2023-12-20T03:38:07;3.90;99.90
4964;DHT22;2497;47.410;9.740;2023-12-20T03:40:37;4.00;99.90
4964;DHT22;2497;47.410;9.740;2023-12-20T03:43:07;4.00;99.90
4964;DHT22;2497;47.410;9.740;2023-12-20T03:45:35;4.00;99.90
4964;DHT22;2497;47.410;9.740;2023-12-20T03:48:11;4.00;99.90
4964;DHT22;2497;47.410;9.740;2023-12-20T03:50:44;4.10;99.90
4964;DHT22;2497;47.410;9.740;2023-12-20T03:55:54;4.20;99.90
4964;DHT22;2497;47.410;9.740;2023-12-20T03:58:23;4.00;99.90
4964;DHT22;2497;47.410;9.740;2023-12-20T04:00:51;4.00;99.90
4964;DHT22;2497;47.410;9.740;2023-12-20T04:03:21;4.10;99.90
4964;DHT22;2497;47.410;9.740;2023-12-20T04:05:48;4.10;99.90
4964;DHT22;2497;47.410;9.740;2023-12-20T04:08:18;4.00;99.90
4964;DHT22;2497;47.410;9.740;2023-12-20T04:10:45;4.00;99.90
4964;DHT22;2497;47.410;9.740;2023-12-20T04:13:14;4.00;99.90
4964;DHT22;2497;47.410;9.740;2023-12-20T04:15:44;4.00;99.90
4964;DHT22;2497;47.410;9.740;2023-12-20T04:18:11;4.00;99.90
4964;DHT22;2497;47.410;9.740;2023-12-20T04:20:38;4.00;99.90
4964;DHT22;2497;47.410;9.740;2023-12-20T04:23:05;4.00;99.90
4964;DHT22;2497;47.410;9.740;2023-12-20T04:25:35;4.10;99.90
4964;DHT22;2497;47.410;9.740;2023-12-20T04:28:03;4.20;99.90
4964;DHT22;2497;47.410;9.740;2023-12-20T04:30:37;4.30;99.90
4964;DHT22;2497;47.410;9.740;2023-12-20T04:33:20;4.50;99.90
4964;DHT22;2497;47.410;9.740;2023-12-20T04:35:51;4.60;99.90
4964;DHT22;2497;47.410;9.740;2023-12-20T04:38:33;4.70;99.90
4964;DHT22;2497;47.410;9.740;2023-12-20T04:41:11;4.80;99.90
4964;DHT22;2497;47.410;9.740;2023-12-20T04:46:23;4.80;99.90
4964;DHT22;2497;47.410;9.740;2023-12-20T04:49:09;4.80;99.90
4964;DHT22;2497;47.410;9.740;2023-12-20T04:51:36;4.80;99.90
4964;DHT22;2497;47.410;9.740;2023-12-20T04:54:10;4.70;99.90
4964;DHT22;2497;47.410;9.740;2023-12-20T04:56:39;4.70;99.90
4964;DHT22;2497;47.410;9.740;2023-12-20T05:01:50;4.80;99.90
4964;DHT22;2497;47.410;9.740;2023-12-20T05:04:24;4.80;99.90
4964;DHT22;2497;47.410;9.740;2023-12-20T05:06:59;4.80;99.90
4964;DHT22;2497;47.410;9.740;2023-12-20T05:09:26;4.80;99.90
4964;DHT22;2497;47.410;9.740;2023-12-20T05:11:57;4.90;99.90
4964;DHT22;2497;47.410;9.740;2023-12-20T05:14:25;4.90;99.90
4964;DHT22;2497;47.410;9.740;2023-12-20T05:16:52;4.80;99.90
4964;DHT22;2497;47.410;9.740;2023-12-20T05:19:21;4.70;99.90
4964;DHT22;2497;47.410;9.740;2023-12-20T05:21:48;4.60;99.90
4964;DHT22;2497;47.410;9.740;2023-12-20T05:24:15;4.50;99.90
4964;DHT22;2497;47.410;9.740;2023-12-20T05:26:42;4.30;99.90
4964;DHT22;2497;47.410;9.740;2023-12-20T05:29:10;4.20;99.90
4964;DHT22;2497;47.410;9.740;2023-12-20T05:31:37;4.00;99.90
4964;DHT22;2497;47.410;9.740;2023-12-20T05:34:04;4.00;99.90
4964;DHT22;2497;47.410;9.740;2023-12-20T05:36:32;4.00;99.90
4964;DHT22;2497;47.410;9.740;2023-12-20T05:38:59;3.90;99.90
4964;DHT22;2497;47.410;9.740;2023-12-20T05:41:26;3.80;99.90
4964;DHT22;2497;47.410;9.740;2023-12-20T05:43:53;3.80;99.90
4964;DHT22;2497;47.410;9.740;2023-12-20T05:46:20;3.80;99.90
4964;DHT22;2497;47.410;9.740;2023-12-20T05:48:47;3.70;99.90
4964;DHT22;2497;47.410;9.740;2023-12-20T05:51:15;3.70;99.90
4964;DHT22;2497;47.410;9.740;2023-12-20T05:53:43;3.70;99.90
4964;DHT22;2497;47.410;9.740;2023-12-20T05:56:11;3.70;99.90
4964;DHT22;2497;47.410;9.740;2023-12-20T05:58:38;3.70;99.90
4964;DHT22;2497;47.410;9.740;2023-12-20T06:01:05;3.70;99.90
4964;DHT22;2497;47.410;9.740;2023-12-20T06:03:34;3.80;99.90
4964;DHT22;2497;47.410;9.740;2023-12-20T06:06:05;3.80;99.90
4964;DHT22;2497;47.410;9.740;2023-12-20T06:08:32;4.00;99.90
4964;DHT22;2497;47.410;9.740;2023-12-20T06:11:01;4.00;99.90
4964;DHT22;2497;47.410;9.740;2023-12-20T06:13:28;4.10;99.90
4964;DHT22;2497;47.410;9.740;2023-12-20T06:15:55;4.30;99.90
4964;DHT22;2497;47.410;9.740;2023-12-20T06:18:22;4.20;99.90
4964;DHT22;2497;47.410;9.740;2023-12-20T06:20:50;4.20;99.90
4964;DHT22;2497;47.410;9.740;2023-12-20T06:23:17;4.30;99.90
4964;DHT22;2497;47.410;9.740;2023-12-20T06:25:44;4.40;99.90
4964;DHT22;2497;47.410;9.740;2023-12-20T06:28:12;4.40;99.90
4964;DHT22;2497;47.410;9.740;2023-12-20T06:30:40;4.50;99.90
4964;DHT22;2497;47.410;9.740;2023-12-20T06:33:07;4.50;99.90
4964;DHT22;2497;47.410;9.740;2023-12-20T06:35:35;4.40;99.90
4964;DHT22;2497;47.410;9.740;2023-12-20T06:38:03;4.40;99.90
4964;DHT22;2497;47.410;9.740;2023-12-20T06:40:30;4.40;99.90
4964;DHT22;2497;47.410;9.740;2023-12-20T06:42:57;4.50;99.90
4964;DHT22;2497;47.410;9.740;2023-12-20T06:45:26;4.50;99.90
4964;DHT22;2497;47.410;9.740;2023-12-20T06:47:53;4.60;99.90
4964;DHT22;2497;47.410;9.740;2023-12-20T06:50:21;4.60;99.90
4964;DHT22;2497;47.410;9.740;2023-12-20T06:52:48;4.70;99.90
4964;DHT22;2497;47.410;9.740;2023-12-20T06:55:15;4.70;99.90
4964;DHT22;2497;47.410;9.740;2023-12-20T06:57:43;4.80;99.90
4964;DHT22;2497;47.410;9.740;2023-12-20T07:00:11;4.80;99.90
4964;DHT22;2497;47.410;9.740;2023-12-20T07:02:40;4.80;99.90
4964;DHT22;2497;47.410;9.740;2023-12-20T07:05:07;4.80;99.90
4964;DHT22;2497;47.410;9.740;2023-12-20T07:07:34;4.80;99.90
4964;DHT22;2497;47.410;9.740;2023-12-20T07:10:04;4.80;99.90
4964;DHT22;2497;47.410;9.740;2023-12-20T07:12:33;4.80;99.90
4964;DHT22;2497;47.410;9.740;2023-12-20T07:15:00;4.80;99.90
4964;DHT22;2497;47.410;9.740;2023-12-20T07:17:28;4.80;99.90
4964;DHT22;2497;47.410;9.740;2023-12-20T07:19:56;4.80;99.90
4964;DHT22;2497;47.410;9.740;2023-12-20T07:22:23;4.90;99.90
4964;DHT22;2497;47.410;9.740;2023-12-20T07:24:50;4.90;99.90
4964;DHT22;2497;47.410;9.740;2023-12-20T07:27:20;4.90;99.90
4964;DHT22;2497;47.410;9.740;2023-12-20T07:29:47;5.00;99.90
4964;DHT22;2497;47.410;9.740;2023-12-20T07:32:14;4.90;99.90
4964;DHT22;2497;47.410;9.740;2023-12-20T07:34:43;4.80;99.90
4964;DHT22;2497;47.410;9.740;2023-12-20T07:37:12;4.90;99.90
4964;DHT22;2497;47.410;9.740;2023-12-20T07:39:39;4.90;99.90
4964;DHT22;2497;47.410;9.740;2023-12-20T07:42:07;4.90;99.90
4964;DHT22;2497;47.410;9.740;2023-12-20T07:44:34;4.90;99.90
4964;DHT22;2497;47.410;9.740;2023-12-20T07:47:02;4.90;99.90
4964;DHT22;2497;47.410;9.740;2023-12-20T07:49:30;4.80;99.90
4964;DHT22;2497;47.410;9.740;2023-12-20T07:51:57;4.90;99.90
4964;DHT22;2497;47.410;9.740;2023-12-20T07:54:25;4.80;99.90
4964;DHT22;2497;47.410;9.740;2023-12-20T07:56:53;4.80;99.90
4964;DHT22;2497;47.410;9.740;2023-12-20T07:59:20;4.90;99.90
4964;DHT22;2497;47.410;9.740;2023-12-20T08:01:47;4.80;99.90
4964;DHT22;2497;47.410;9.740;2023-12-20T08:04:14;4.80;99.90
4964;DHT22;2497;47.410;9.740;2023-12-20T08:06:41;4.80;99.90
4964;DHT22;2497;47.410;9.740;2023-12-20T08:09:08;4.80;99.90
4964;DHT22;2497;47.410;9.740;2023-12-20T08:11:37;4.80;99.90
4964;DHT22;2497;47.410;9.740;2023-12-20T08:14:04;4.80;99.90
4964;DHT22;2497;47.410;9.740;2023-12-20T08:16:31;4.80;99.90
4964;DHT22;2497;47.410;9.740;2023-12-20T08:18:58;4.80;99.90
4964;DHT22;2497;47.410;9.740;2023-12-20T08:21:25;4.80;99.90
4964;DHT22;2497;47.410;9.740;2023-12-20T08:23:53;4.80;99.90
4964;DHT22;2497;47.410;9.740;2023-12-20T08:26:20;4.80;99.90
4964;DHT22;2497;47.410;9.740;2023-12-20T08:28:50;4.80;99.90
4964;DHT22;2497;47.410;9.740;2023-12-20T08:31:18;4.80;99.90
4964;DHT22;2497;47.410;9.740;2023-12-20T08:33:46;4.80;99.90
4964;DHT22;2497;47.410;9.740;2023-12-20T08:36:13;4.90;99.90
4964;DHT22;2497;47.410;9.740;2023-12-20T08:38:41;4.90;99.90
4964;DHT22;2497;47.410;9.740;2023-12-20T08:41:08;4.90;99.90
4964;DHT22;2497;47.410;9.740;2023-12-20T08:43:35;4.80;99.90
4964;DHT22;2497;47.410;9.740;2023-12-20T08:46:03;4.80;99.90
4964;DHT22;2497;47.410;9.740;2023-12-20T08:48:30;4.90;99.90
4964;DHT22;2497;47.410;9.740;2023-12-20T08:50:58;4.90;99.90
4964;DHT22;2497;47.410;9.740;2023-12-20T08:53:25;4.90;99.90
4964;DHT22;2497;47.410;9.740;2023-12-20T08:55:52;5.00;99.90
4964;DHT22;2497;47.410;9.740;2023-12-20T08:58:19;5.10;99.90
4964;DHT22;2497;47.410;9.740;2023-12-20T09:00:46;5.10;99.90
4964;DHT22;2497;47.410;9.740;2023-12-20T09:03:15;5.10;99.90
4964;DHT22;2497;47.410;9.740;2023-12-20T09:05:42;5.10;99.90
4964;DHT22;2497;47.410;9.740;2023-12-20T09:08:10;5.10;99.90
4964;DHT22;2497;47.410;9.740;2023-12-20T09:10:38;5.10;99.90
4964;DHT22;2497;47.410;9.740;2023-12-20T09:13:05;5.20;99.90
4964;DHT22;2497;47.410;9.740;2023-12-20T09:15:32;5.30;99.90
4964;DHT22;2497;47.410;9.740;2023-12-20T09:17:59;5.30;99.90
4964;DHT22;2497;47.410;9.740;2023-12-20T09:20:28;5.40;99.90
4964;DHT22;2497;47.410;9.740;2023-12-20T09:22:55;5.50;99.90
4964;DHT22;2497;47.410;9.740;2023-12-20T09:25:21;5.50;99.90
4964;DHT22;2497;47.410;9.740;2023-12-20T09:27:49;5.50;99.90
4964;DHT22;2497;47.410;9.740;2023-12-20T09:30:16;5.60;99.90
4964;DHT22;2497;47.410;9.740;2023-12-20T09:32:43;5.60;99.90
4964;DHT22;2497;47.410;9.740;2023-12-20T09:35:10;5.50;99.90
4964;DHT22;2497;47.410;9.740;2023-12-20T09:37:38;5.60;99.90
4964;DHT22;2497;47.410;9.740;2023-12-20T09:40:11;5.60;99.90
4964;DHT22;2497;47.410;9.740;2023-12-20T09:42:45;5.60;99.90
4964;DHT22;2497;47.410;9.740;2023-12-20T09:45:15;5.60;99.90
4964;DHT22;2497;47.410;9.740;2023-12-20T09:47:43;5.60;99.90
4964;DHT22;2497;47.410;9.740;2023-12-20T09:50:11;5.70;99.90
4964;DHT22;2497;47.410;9.740;2023-12-20T09:52:42;5.60;99.90
4964;DHT22;2497;47.410;9.740;2023-12-20T09:55:10;5.50;99.90
4964;DHT22;2497;47.410;9.740;2023-12-20T09:57:37;5.40;99.90
4964;DHT22;2497;47.410;9.740;2023-12-20T10:00:05;5.40;99.90
4964;DHT22;2497;47.410;9.740;2023-12-20T10:02:33;5.30;99.90
4964;DHT22;2497;47.410;9.740;2023-12-20T10:05:01;5.20;99.90
4964;DHT22;2497;47.410;9.740;2023-12-20T10:07:28;5.30;99.90
4964;DHT22;2497;47.410;9.740;2023-12-20T10:09:57;5.20;99.90
4964;DHT22;2497;47.410;9.740;2023-12-20T10:12:24;5.30;99.90
4964;DHT22;2497;47.410;9.740;2023-12-20T10:14:51;5.20;99.90
4964;DHT22;2497;47.410;9.740;2023-12-20T10:17:21;5.20;99.90
4964;DHT22;2497;47.410;9.740;2023-12-20T10:19:49;5.10;99.90
4964;DHT22;2497;47.410;9.740;2023-12-20T10:22:16;5.10;99.90
4964;DHT22;2497;47.410;9.740;2023-12-20T10:24:43;5.10;99.90
4964;DHT22;2497;47.410;9.740;2023-12-20T10:27:11;5.10;99.90
4964;DHT22;2497;47.410;9.740;2023-12-20T10:29:38;5.20;99.90
4964;DHT22;2497;47.410;9.740;2023-12-20T10:32:22;5.20;99.90
4964;DHT22;2497;47.410;9.740;2023-12-20T10:34:50;5.20;99.90
4964;DHT22;2497;47.410;9.740;2023-12-20T10:37:17;5.30;99.90
4964;DHT22;2497;47.410;9.740;2023-12-20T10:39:47;5.20;99.90
4964;DHT22;2497;47.410;9.740;2023-12-20T10:42:18;5.20;99.90
4964;DHT22;2497;47.410;9.740;2023-12-20T10:44:46;5.20;99.90
4964;DHT22;2497;47.410;9.740;2023-12-20T10:47:14;5.30;99.90
4964;DHT22;2497;47.410;9.740;2023-12-20T10:49:42;5.40;99.90
4964;DHT22;2497;47.410;9.740;2023-12-20T10:52:12;5.40;99.90
4964;DHT22;2497;47.410;9.740;2023-12-20T10:54:39;5.50;99.90
4964;DHT22;2497;47.410;9.740;2023-12-20T10:57:07;5.50;99.90
4964;DHT22;2497;47.410;9.740;2023-12-20T10:59:37;5.60;99.90
4964;DHT22;2497;47.410;9.740;2023-12-20T11:02:04;5.70;99.90
4964;DHT22;2497;47.410;9.740;2023-12-20T11:04:40;5.70;99.90
4964;DHT22;2497;47.410;9.740;2023-12-20T11:07:19;5.80;99.90
4964;DHT22;2497;47.410;9.740;2023-12-20T11:09:56;5.90;99.90
4964;DHT22;2497;47.410;9.740;2023-12-20T11:12:32;5.90;99.90
4964;DHT22;2497;47.410;9.740;2023-12-20T11:15:05;6.00;99.90
4964;DHT22;2497;47.410;9.740;2023-12-20T11:17:38;6.00;99.90
4964;DHT22;2497;47.410;9.740;2023-12-20T11:20:08;6.10;99.90
4964;DHT22;2497;47.410;9.740;2023-12-20T11:22:37;6.10;99.90
4964;DHT22;2497;47.410;9.740;2023-12-20T11:25:09;6.20;99.90
4964;DHT22;2497;47.410;9.740;2023-12-20T11:27:36;6.20;99.90
4964;DHT22;2497;47.410;9.740;2023-12-20T11:30:06;6.30;99.90
4964;DHT22;2497;47.410;9.740;2023-12-20T11:32:35;6.20;99.90
4964;DHT22;2497;47.410;9.740;2023-12-20T11:35:17;6.30;99.90
4964;DHT22;2497;47.410;9.740;2023-12-20T11:37:45;6.40;99.90
4964;DHT22;2497;47.410;9.740;2023-12-20T11:40:16;6.40;99.90
4964;DHT22;2497;47.410;9.740;2023-12-20T11:42:44;6.30;99.90
4964;DHT22;2497;47.410;9.740;2023-12-20T11:45:14;6.20;99.90
4964;DHT22;2497;47.410;9.740;2023-12-20T11:47:43;6.30;99.90
4964;DHT22;2497;47.410;9.740;2023-12-20T11:50:10;6.40;99.90
4964;DHT22;2497;47.410;9.740;2023-12-20T11:52:38;6.40;99.90
4964;DHT22;2497;47.410;9.740;2023-12-20T11:55:06;6.40;99.90
4964;DHT22;2497;47.410;9.740;2023-12-20T11:57:33;6.30;99.90
4964;DHT22;2497;47.410;9.740;2023-12-20T12:00:00;6.30;99.90
4964;DHT22;2497;47.410;9.740;2023-12-20T12:02:30;6.30;99.90
4964;DHT22;2497;47.410;9.740;2023-12-20T12:04:57;6.20;99.90
4964;DHT22;2497;47.410;9.740;2023-12-20T12:07:25;6.20;99.90
4964;DHT22;2497;47.410;9.740;2023-12-20T12:09:52;6.20;99.90
4964;DHT22;2497;47.410;9.740;2023-12-20T12:12:19;6.10;99.90
4964;DHT22;2497;47.410;9.740;2023-12-20T12:14:48;6.10;99.90
4964;DHT22;2497;47.410;9.740;2023-12-20T12:17:16;6.10;99.90
4964;DHT22;2497;47.410;9.740;2023-12-20T12:19:44;6.00;99.90
4964;DHT22;2497;47.410;9.740;2023-12-20T12:22:13;6.00;99.90
4964;DHT22;2497;47.410;9.740;2023-12-20T12:24:41;6.00;99.90
4964;DHT22;2497;47.410;9.740;2023-12-20T12:27:09;6.00;99.90
4964;DHT22;2497;47.410;9.740;2023-12-20T12:29:36;6.00;99.90
4964;DHT22;2497;47.410;9.740;2023-12-20T12:32:05;6.10;99.90
4964;DHT22;2497;47.410;9.740;2023-12-20T12:34:33;6.10;99.90
4964;DHT22;2497;47.410;9.740;2023-12-20T12:37:03;6.10;99.90
4964;DHT22;2497;47.410;9.740;2023-12-20T12:39:30;6.10;99.90
4964;DHT22;2497;47.410;9.740;2023-12-20T12:41:57;6.10;99.90
4964;DHT22;2497;47.410;9.740;2023-12-20T12:44:24;6.10;99.90
4964;DHT22;2497;47.410;9.740;2023-12-20T12:46:52;6.10;99.90
4964;DHT22;2497;47.410;9.740;2023-12-20T12:49:19;6.10;99.90
4964;DHT22;2497;47.410;9.740;2023-12-20T12:51:47;6.20;99.90
4964;DHT22;2497;47.410;9.740;2023-12-20T12:54:15;6.10;99.90
4964;DHT22;2497;47.410;9.740;2023-12-20T12:56:44;6.20;99.90
4964;DHT22;2497;47.410;9.740;2023-12-20T12:59:12;6.40;99.90
4964;DHT22;2497;47.410;9.740;2023-12-20T13:01:39;6.40;99.90
4964;DHT22;2497;47.410;9.740;2023-12-20T13:04:06;6.50;99.90
4964;DHT22;2497;47.410;9.740;2023-12-20T13:06:36;6.50;99.90
4964;DHT22;2497;47.410;9.740;2023-12-20T13:09:04;6.60;99.90
4964;DHT22;2497;47.410;9.740;2023-12-20T13:11:33;6.50;99.90
4964;DHT22;2497;47.410;9.740;2023-12-20T13:14:00;6.50;99.90
4964;DHT22;2497;47.410;9.740;2023-12-20T13:16:29;6.40;99.90
4964;DHT22;2497;47.410;9.740;2023-12-20T13:18:56;6.40;99.90
4964;DHT22;2497;47.410;9.740;2023-12-20T13:21:24;6.40;99.90
4964;DHT22;2497;47.410;9.740;2023-12-20T13:23:51;6.40;99.90
4964;DHT22;2497;47.410;9.740;2023-12-20T13:26:19;6.40;99.90
4964;DHT22;2497;47.410;9.740;2023-12-20T13:28:48;6.30;99.90
4964;DHT22;2497;47.410;9.740;2023-12-20T13:31:15;6.30;99.90
4964;DHT22;2497;47.410;9.740;2023-12-20T13:33:42;6.40;99.90
4964;DHT22;2497;47.410;9.740;2023-12-20T13:36:09;6.40;99.90
4964;DHT22;2497;47.410;9.740;2023-12-20T13:38:36;6.40;99.90
4964;DHT22;2497;47.410;9.740;2023-12-20T13:41:03;6.40;99.90
4964;DHT22;2497;47.410;9.740;2023-12-20T13:43:30;6.40;99.90
4964;DHT22;2497;47.410;9.740;2023-12-20T13:45:59;6.40;99.90
4964;DHT22;2497;47.410;9.740;2023-12-20T13:48:26;6.30;99.90
4964;DHT22;2497;47.410;9.740;2023-12-20T13:50:53;6.30;99.90
4964;DHT22;2497;47.410;9.740;2023-12-20T13:53:22;6.40;99.90
4964;DHT22;2497;47.410;9.740;2023-12-20T13:55:49;6.30;99.90
4964;DHT22;2497;47.410;9.740;2023-12-20T13:58:17;6.20;99.90
4964;DHT22;2497;47.410;9.740;2023-12-20T14:00:45;6.20;99.90
4964;DHT22;2497;47.410;9.740;2023-12-20T14:03:15;6.00;99.90
4964;DHT22;2497;47.410;9.740;2023-12-20T14:05:42;6.10;99.90
4964;DHT22;2497;47.410;9.740;2023-12-20T14:08:09;6.20;99.90
4964;DHT22;2497;47.410;9.740;2023-12-20T14:10:36;6.10;99.90
4964;DHT22;2497;47.410;9.740;2023-12-20T14:13:04;6.00;99.90
4964;DHT22;2497;47.410;9.740;2023-12-20T14:15:31;6.00;99.90
4964;DHT22;2497;47.410;9.740;2023-12-20T14:18:03;6.00;99.90
4964;DHT22;2497;47.410;9.740;2023-12-20T14:20:33;6.00;99.90
4964;DHT22;2497;47.410;9.740;2023-12-20T14:23:00;5.90;99.90
4964;DHT22;2497;47.410;9.740;2023-12-20T14:25:28;5.90;99.90
4964;DHT22;2497;47.410;9.740;2023-12-20T14:27:55;5.90;99.90
4964;DHT22;2497;47.410;9.740;2023-12-20T14:30:23;6.00;99.90
4964;DHT22;2497;47.410;9.740;2023-12-20T14:32:50;6.00;99.90
4964;DHT22;2497;47.410;9.740;2023-12-20T14:35:18;5.90;99.90
4964;DHT22;2497;47.410;9.740;2023-12-20T14:37:46;5.90;99.90
4964;DHT22;2497;47.410;9.740;2023-12-20T14:40:14;5.80;99.90
4964;DHT22;2497;47.410;9.740;2023-12-20T14:42:44;5.80;99.90
4964;DHT22;2497;47.410;9.740;2023-12-20T14:45:11;5.80;99.90
4964;DHT22;2497;47.410;9.740;2023-12-20T14:47:39;5.80;99.90
4964;DHT22;2497;47.410;9.740;2023-12-20T14:50:07;5.80;99.90
4964;DHT22;2497;47.410;9.740;2023-12-20T14:52:34;5.80;99.90
4964;DHT22;2497;47.410;9.740;2023-12-20T14:55:04;5.80;99.90
4964;DHT22;2497;47.410;9.740;2023-12-20T14:57:32;5.70;99.90
4964;DHT22;2497;47.410;9.740;2023-12-20T14:59:59;5.60;99.90
4964;DHT22;2497;47.410;9.740;2023-12-20T15:02:26;5.60;99.90
4964;DHT22;2497;47.410;9.740;2023-12-20T15:04:53;5.60;99.90
4964;DHT22;2497;47.410;9.740;2023-12-20T15:07:20;5.70;99.90
4964;DHT22;2497;47.410;9.740;2023-12-20T15:09:47;5.50;99.90
4964;DHT22;2497;47.410;9.740;2023-12-20T15:12:16;5.50;99.90
4964;DHT22;2497;47.410;9.740;2023-12-20T15:14:43;5.70;99.90
4964;DHT22;2497;47.410;9.740;2023-12-20T15:17:10;5.50;99.90
4964;DHT22;2497;47.410;9.740;2023-12-20T15:19:37;5.50;99.90
4964;DHT22;2497;47.410;9.740;2023-12-20T15:22:04;5.50;99.90
4964;DHT22;2497;47.410;9.740;2023-12-20T15:24:31;5.40;99.90
4964;DHT22;2497;47.410;9.740;2023-12-20T15:27:04;5.50;99.90
4964;DHT22;2497;47.410;9.740;2023-12-20T15:29:33;5.50;99.90
4964;DHT22;2497;47.410;9.740;2023-12-20T15:32:00;5.40;99.90
4964;DHT22;2497;47.410;9.740;2023-12-20T15:34:27;5.40;99.90
4964;DHT22;2497;47.410;9.740;2023-12-20T15:36:54;5.40;99.90
4964;DHT22;2497;47.410;9.740;2023-12-20T15:39:21;5.30;99.90
4964;DHT22;2497;47.410;9.740;2023-12-20T15:41:48;5.30;99.90
4964;DHT22;2497;47.410;9.740;2023-12-20T15:44:16;5.20;99.90
4964;DHT22;2497;47.410;9.740;2023-12-20T15:46:44;5.00;99.90
4964;DHT22;2497;47.410;9.740;2023-12-20T15:49:11;4.90;99.90
4964;DHT22;2497;47.410;9.740;2023-12-20T15:51:40;4.80;99.90
4964;DHT22;2497;47.410;9.740;2023-12-20T15:54:07;4.90;99.90
4964;DHT22;2497;47.410;9.740;2023-12-20T15:56:34;5.00;99.90
4964;DHT22;2497;47.410;9.740;2023-12-20T15:59:02;5.10;99.90
4964;DHT22;2497;47.410;9.740;2023-12-20T16:01:29;5.00;99.90
4964;DHT22;2497;47.410;9.740;2023-12-20T16:03:58;4.90;99.90
4964;DHT22;2497;47.410;9.740;2023-12-20T16:06:25;5.00;99.90
4964;DHT22;2497;47.410;9.740;2023-12-20T16:08:52;5.00;99.90
4964;DHT22;2497;47.410;9.740;2023-12-20T16:11:20;4.90;99.90
4964;DHT22;2497;47.410;9.740;2023-12-20T16:13:47;4.80;99.90
4964;DHT22;2497;47.410;9.740;2023-12-20T16:16:14;4.80;99.90
4964;DHT22;2497;47.410;9.740;2023-12-20T16:18:41;4.80;99.90
4964;DHT22;2497;47.410;9.740;2023-12-20T16:21:10;4.80;99.90
4964;DHT22;2497;47.410;9.740;2023-12-20T16:23:37;4.80;99.90
4964;DHT22;2497;47.410;9.740;2023-12-20T16:26:04;4.80;99.90
4964;DHT22;2497;47.410;9.740;2023-12-20T16:28:31;4.70;99.90
4964;DHT22;2497;47.410;9.740;2023-12-20T16:30:58;4.70;99.90
4964;DHT22;2497;47.410;9.740;2023-12-20T16:33:25;4.90;99.90
4964;DHT22;2497;47.410;9.740;2023-12-20T16:35:52;4.70;99.90
4964;DHT22;2497;47.410;9.740;2023-12-20T16:38:23;4.80;99.90
4964;DHT22;2497;47.410;9.740;2023-12-20T16:40:50;4.80;99.90
4964;DHT22;2497;47.410;9.740;2023-12-20T16:43:17;4.70;99.90
4964;DHT22;2497;47.410;9.740;2023-12-20T16:45:44;4.70;99.90
4964;DHT22;2497;47.410;9.740;2023-12-20T16:48:11;4.60;99.90
4964;DHT22;2497;47.410;9.740;2023-12-20T16:50:38;4.60;99.90
4964;DHT22;2497;47.410;9.740;2023-12-20T16:53:05;4.60;99.90
4964;DHT22;2497;47.410;9.740;2023-12-20T16:55:34;4.60;99.90
4964;DHT22;2497;47.410;9.740;2023-12-20T16:58:01;4.60;99.90
4964;DHT22;2497;47.410;9.740;2023-12-20T17:00:28;4.60;99.90